Etusivu
METAR-TAF:

METAR-TAF

Lentoasemat :

Santiago de Chile, Chile

Leveyspiiri: 33-27-23S, Pituuspiiri: 070-32-48W, korkeus merenpinnasta: 646 m

Tämänhetkinen sää

Tämä raportti tehtiin 10 tuntia ja 41 minuuttia sitten, kello 22.00 UTC
Tuuli 5 kn lounaasta
Lämpötila 22°C
Kosteus 33%
Ilmanpaine 1020 hPa
Näkyvyys 10 km tai enemmän
ei pilviä alle 1500 m:ssä eikä cumulonimbus-pilviä

METAR: SCTB 162200Z 22005KT CAVOK 22/05 Q1020

Aika: 04:41 (08:41 UTC)


TAF: puuttuu

Säähavainnot ja -ennusteet yli 4000 lentoasemalta (METAR- ja TAF-raportit).

Käytössä olevat sääasemat on merkitty karttaan keltaisilla ja punaisilla pisteillä.

Aseta hiiri pisteen päälle nähdäksesi sääaseman nimen.

Klikkaa sitten nähdäksesi säähavainnot ja -ennusteet.

Kartan vaihtaminen: klikkaa mustalla rastilla varustettuja vihreitä pisteitä, niin voit zoomata sisään; viivalla varustettua vihreää pistettä, niin voit zoomata ulos tai vihreitä nuolia, niin pääset viereisille kartoille.


METAR-TAF: